KAVL/AVL METAR and TAF weather

Enter ICAO airport designator
Station Type Date Time Source
KAVL METAR 2019/05/26 22:54 UTC NOAA

KAVL 262254Z 30010KT 10SM CLR 31/10 A3012 RMK AO2 SLP172 T03060100


Station Type Date Time Source
KAVL Decoded METAR 2019/05/26 22:54 UTC NOAA

ASHEVILLE REGIONAL AIRPORT, NC, United States (KAVL) 35-26N 82-32W 670M
May 26, 2019 - 06:54 PM EDT / 2019.05.26 2254 UTC
Wind: from the WNW (300 degrees) at 12 MPH (10 KT):0
Visibility: 10 mile(s):0
Sky conditions: clear
Temperature: 87.1 F (30.6 C)
Dew Point: 50.0 F (10.0 C)
Relative Humidity: 27%
Pressure (altimeter): 30.12 in. Hg (1019 hPa)
ob: KAVL 262254Z 30010KT 10SM CLR 31/10 A3012 RMK AO2 SLP172 T03060100
cycle: 23

Station Type Date Time Source
KAVL TAF 2019/05/26 18:33 UTC NOAA

TAF KAVL 261730Z 2618/2718 33008KT P6SM SCT060
FM270100 33007KT P6SM FEW060 SCT250
FM271400 34011G18KT P6SM SCT060

Example: see airport list